Time;durP1;ratioP1;P1;durP2;ratioP2;P2;SDS_P1;SDS_P2;PMS_P1;PMS_P2;Temp;Humidity;BMP_temperature;BMP_pressure;BME280_temperature;BME280_humidity;BME280_pressure;Samples;Min_cycle;Max_cycle;Signal;HPM_P1;HPM_P2
2021/10/09 00:00:44;;;;;;;52.55;29.05;;;7.80;99.90;;;;;;4921310;29;20114;-69
2021/10/09 00:03:10;;;;;;;51.83;28.55;;;7.80;99.90;;;;;;4921466;29;20032;-70
2021/10/09 00:05:36;;;;;;;49.38;28.52;;;7.70;99.90;;;;;;4921009;29;20031;-70
2021/10/09 00:08:02;;;;;;;62.83;30.40;;;7.70;99.90;;;;;;4922426;29;20055;-70
2021/10/09 00:10:30;;;;;;;60.22;32.92;;;7.70;99.90;;;;;;4921526;29;20026;-70
2021/10/09 00:12:56;;;;;;;58.80;29.92;;;7.60;99.90;;;;;;4920168;29;20031;-70
2021/10/09 00:15:22;;;;;;;51.17;28.00;;;7.50;99.90;;;;;;4921142;29;20498;-71
2021/10/09 00:17:48;;;;;;;55.60;30.85;;;7.50;99.90;;;;;;4921005;29;20024;-70
2021/10/09 00:20:14;;;;;;;61.42;30.90;;;7.60;99.90;;;;;;4921211;29;20075;-69
2021/10/09 00:22:40;;;;;;;62.92;31.52;;;7.50;99.90;;;;;;4921152;29;20148;-70
2021/10/09 00:25:07;;;;;;;63.95;32.90;;;7.50;99.90;;;;;;4920578;29;20028;-70
2021/10/09 00:27:33;;;;;;;62.05;33.08;;;7.50;99.90;;;;;;4921222;29;20035;-70
2021/10/09 00:29:58;;;;;;;67.80;34.15;;;7.40;99.90;;;;;;4920414;29;20035;-69
2021/10/09 00:32:25;;;;;;;55.03;30.30;;;7.40;99.90;;;;;;4920771;29;20510;-70
2021/10/09 00:34:51;;;;;;;66.10;33.83;;;7.40;99.90;;;;;;4920412;29;20052;-70
2021/10/09 00:37:17;;;;;;;57.45;32.17;;;7.30;99.90;;;;;;4921165;29;20570;-70
2021/10/09 00:39:42;;;;;;;53.42;29.42;;;7.30;99.90;;;;;;4921013;29;20569;-70
2021/10/09 00:42:09;;;;;;;59.42;30.60;;;7.30;99.90;;;;;;4921237;29;20390;-70
2021/10/09 00:44:36;;;;;;;58.50;32.30;;;7.30;99.90;;;;;;4916952;29;20088;-69
2021/10/09 00:47:03;;;;;;;56.63;29.35;;;7.30;99.90;;;;;;4917684;29;20030;-70
2021/10/09 00:49:31;;;;;;;51.15;27.90;;;7.30;99.90;;;;;;4918360;29;20028;-69
2021/10/09 00:51:58;;;;;;;59.80;30.10;;;7.30;99.90;;;;;;4918209;29;20028;-69
2021/10/09 00:54:27;;;;;;;60.88;30.80;;;7.20;99.90;;;;;;4917503;29;20375;-69
2021/10/09 00:56:57;;;;;;;57.78;31.65;;;7.30;99.90;;;;;;4917830;29;20051;-69
2021/10/09 00:59:26;;;;;;;72.00;35.80;;;7.30;99.90;;;;;;4912593;29;20156;-70
2021/10/09 01:01:52;;;;;;;64.13;33.13;;;7.20;99.90;;;;;;4898764;29;20029;-71
2021/10/09 01:04:18;;;;;;;71.32;34.05;;;7.20;99.90;;;;;;4913019;29;20063;-70
2021/10/09 01:06:45;;;;;;;69.15;32.60;;;7.20;99.90;;;;;;4898693;29;20080;-70
2021/10/09 01:09:11;;;;;;;66.97;33.85;;;7.20;99.90;;;;;;4898824;29;20045;-70
2021/10/09 01:11:38;;;;;;;69.72;33.50;;;7.20;99.90;;;;;;4898839;29;20029;-70
2021/10/09 01:14:04;;;;;;;70.63;32.97;;;7.10;99.90;;;;;;4898470;29;20028;-70
2021/10/09 01:16:30;;;;;;;63.10;32.72;;;7.10;99.90;;;;;;4898260;29;20036;-70
2021/10/09 01:18:58;;;;;;;69.57;34.67;;;7.00;99.90;;;;;;4899202;29;20104;-71
2021/10/09 01:21:25;;;;;;;81.60;36.72;;;7.10;99.90;;;;;;4908425;29;20043;-69
2021/10/09 01:23:52;;;;;;;84.35;37.47;;;7.10;99.90;;;;;;4918681;29;20040;-70
2021/10/09 01:26:18;;;;;;;75.00;34.47;;;7.10;99.90;;;;;;4918407;29;20028;-71
2021/10/09 01:28:48;;;;;;;69.82;36.35;;;7.00;99.90;;;;;;4918648;29;20036;-69
2021/10/09 01:31:14;;;;;;;76.68;36.88;;;7.00;99.90;;;;;;4923055;29;20502;-71
2021/10/09 01:33:43;;;;;;;77.55;35.65;;;7.00;99.90;;;;;;4919034;29;20030;-70
2021/10/09 01:36:09;;;;;;;68.72;34.25;;;6.90;99.90;;;;;;4917964;29;20024;-70
2021/10/09 01:38:35;;;;;;;68.30;33.58;;;6.90;99.90;;;;;;4917838;29;20530;-70
2021/10/09 01:41:02;;;;;;;70.38;35.15;;;6.90;99.90;;;;;;4917613;29;20036;-70
2021/10/09 01:43:28;;;;;;;77.72;37.33;;;6.80;99.90;;;;;;4917164;29;20024;-71
2021/10/09 01:45:54;;;;;;;61.38;31.77;;;6.80;99.90;;;;;;4916356;29;20028;-70
2021/10/09 01:48:30;;;;;;;59.97;31.85;;;6.80;99.90;;;;;;4917195;29;20663;-70
2021/10/09 01:50:55;;;;;;;82.88;36.88;;;6.80;99.90;;;;;;4917070;29;20402;-70
2021/10/09 01:53:21;;;;;;;70.78;34.47;;;6.80;99.90;;;;;;4916022;29;20028;-70
2021/10/09 01:55:47;;;;;;;73.35;36.22;;;6.80;99.90;;;;;;4915607;29;20028;-71
2021/10/09 01:58:12;;;;;;;75.30;36.13;;;6.90;99.90;;;;;;4916769;29;20036;-71
2021/10/09 02:00:38;;;;;;;93.80;39.78;;;6.80;99.90;;;;;;4916790;29;20550;-69
2021/10/09 02:03:06;;;;;;;80.00;36.75;;;6.80;99.90;;;;;;4916538;29;20039;-69
2021/10/09 02:05:34;;;;;;;83.05;39.20;;;6.80;99.90;;;;;;4915801;29;20107;-72
2021/10/09 02:08:01;;;;;;;84.43;38.95;;;6.80;99.90;;;;;;4916770;29;20483;-71
2021/10/09 02:10:28;;;;;;;89.40;38.85;;;6.80;99.90;;;;;;4916510;29;20036;-70
2021/10/09 02:12:54;;;;;;;82.40;37.90;;;6.70;99.90;;;;;;4916613;29;20463;-70
2021/10/09 02:15:25;;;;;;;87.55;38.38;;;6.70;99.90;;;;;;4915838;29;20569;-70
2021/10/09 02:18:37;;;;;;;85.68;40.28;;;6.70;99.90;;;;;;4916196;29;20410;-69
2021/10/09 02:26:08;;;;;;;70.82;36.42;;;6.70;99.90;;;;;;4915545;29;20071;-70
2021/10/09 02:28:34;;;;;;;77.85;36.53;;;6.60;99.90;;;;;;4915029;29;20051;-69
2021/10/09 02:31:00;;;;;;;69.80;34.97;;;6.70;99.90;;;;;;4915372;29;20364;-72
2021/10/09 02:33:25;;;;;;;66.95;33.08;;;6.60;99.90;;;;;;4916039;29;20020;-70
2021/10/09 02:35:51;;;;;;;80.72;36.40;;;6.60;99.90;;;;;;4916011;29;20039;-70
2021/10/09 02:38:17;;;;;;;70.18;34.58;;;6.60;99.90;;;;;;4916157;29;20032;-69
2021/10/09 02:40:44;;;;;;;77.22;37.80;;;6.50;99.90;;;;;;4916167;29;20032;-71
2021/10/09 02:43:11;;;;;;;86.47;37.17;;;6.50;99.90;;;;;;4916115;29;20056;-70
2021/10/09 02:45:37;;;;;;;82.85;38.83;;;6.50;99.90;;;;;;4915243;29;20059;-71
2021/10/09 02:48:06;;;;;;;69.47;34.65;;;6.40;99.90;;;;;;4915683;29;20074;-70
2021/10/09 02:50:31;;;;;;;71.70;36.08;;;6.50;99.90;;;;;;4915908;29;20629;-70
2021/10/09 02:52:58;;;;;;;74.53;34.72;;;6.40;99.90;;;;;;4916023;29;20040;-70
2021/10/09 02:55:24;;;;;;;71.15;35.03;;;6.40;99.90;;;;;;4915241;29;20052;-69
2021/10/09 02:57:50;;;;;;;73.10;35.40;;;6.40;99.90;;;;;;4916019;29;20024;-70
2021/10/09 03:00:17;;;;;;;72.35;35.05;;;6.40;99.90;;;;;;4917904;29;20027;-70
2021/10/09 03:02:43;;;;;;;71.63;35.33;;;6.40;99.90;;;;;;4919186;29;20035;-70
2021/10/09 03:05:10;;;;;;;70.55;34.92;;;6.30;99.90;;;;;;4915293;29;20099;-69
2021/10/09 03:07:36;;;;;;;75.75;36.85;;;6.30;99.90;;;;;;4915277;29;20030;-69
2021/10/09 03:10:04;;;;;;;74.22;35.80;;;6.40;99.90;;;;;;4915647;29;20064;-70
2021/10/09 03:12:29;;;;;;;60.72;33.85;;;6.30;99.90;;;;;;4915604;29;20486;-70
2021/10/09 03:14:55;;;;;;;74.78;35.72;;;6.30;99.90;;;;;;4913627;29;20150;-69
2021/10/09 03:17:21;;;;;;;77.30;35.47;;;6.30;99.90;;;;;;4915197;29;20406;-70
2021/10/09 03:19:46;;;;;;;73.80;36.47;;;6.20;99.90;;;;;;4915419;29;20028;-70
2021/10/09 03:22:12;;;;;;;69.70;35.38;;;6.20;99.90;;;;;;4915509;29;20028;-69
2021/10/09 03:24:38;;;;;;;74.65;34.55;;;6.10;99.90;;;;;;4914957;29;20106;-69
2021/10/09 03:27:04;;;;;;;75.45;36.83;;;6.20;99.90;;;;;;4915299;29;20032;-72
2021/10/09 03:29:30;;;;;;;81.38;36.78;;;6.10;99.90;;;;;;4914605;29;20084;-70
2021/10/09 03:31:56;;;;;;;68.22;33.47;;;6.10;99.90;;;;;;4913875;29;20028;-69
2021/10/09 03:34:22;;;;;;;68.32;34.20;;;6.00;99.90;;;;;;4914866;29;20099;-70
2021/10/09 03:36:47;;;;;;;71.93;35.85;;;6.10;99.90;;;;;;4915121;29;20028;-70
2021/10/09 03:39:17;;;;;;;79.60;37.67;;;6.00;99.90;;;;;;4915463;29;20084;-70
2021/10/09 03:41:47;;;;;;;65.10;32.80;;;6.00;99.90;;;;;;4915300;29;20032;-69
2021/10/09 03:44:14;;;;;;;65.88;33.92;;;6.00;99.90;;;;;;4915317;29;20048;-71
2021/10/09 03:46:44;;;;;;;75.35;33.88;;;6.00;99.90;;;;;;4914422;29;20088;-70
2021/10/09 03:54:28;;;;;;;65.22;32.22;;;5.90;99.90;;;;;;4913230;29;20043;-71
2021/10/09 03:56:54;;;;;;;71.38;35.17;;;5.90;99.90;;;;;;4907950;29;20024;-75
2021/10/09 03:59:19;;;;;;;71.72;35.30;;;6.00;99.90;;;;;;4912536;29;20079;-74
2021/10/09 04:01:45;;;;;;;71.60;34.28;;;5.90;99.90;;;;;;4914591;29;20033;-74
2021/10/09 04:04:11;;;;;;;74.82;35.95;;;5.90;99.90;;;;;;4914626;29;20064;-75
2021/10/09 04:06:37;;;;;;;68.20;32.40;;;5.80;99.90;;;;;;4914038;29;20080;-74
2021/10/09 04:09:02;;;;;;;66.85;32.97;;;5.80;99.90;;;;;;4914503;29;20028;-74
2021/10/09 04:11:28;;;;;;;69.93;31.90;;;5.80;99.90;;;;;;4914756;29;20028;-74
2021/10/09 04:13:53;;;;;;;65.30;33.50;;;5.70;99.90;;;;;;4914897;29;20032;-74
2021/10/09 04:16:19;;;;;;;70.38;34.28;;;5.70;99.90;;;;;;4913715;29;20547;-74
2021/10/09 04:18:45;;;;;;;69.13;34.55;;;5.70;99.90;;;;;;4916652;29;20024;-75
2021/10/09 04:21:10;;;;;;;65.55;32.63;;;5.70;99.90;;;;;;4917301;29;20062;-74
2021/10/09 04:23:36;;;;;;;63.08;30.48;;;5.60;99.90;;;;;;4918636;29;20400;-74
2021/10/09 04:26:02;;;;;;;65.68;31.63;;;5.50;99.90;;;;;;4917335;29;20036;-76
2021/10/09 04:28:27;;;;;;;72.30;33.10;;;5.60;99.90;;;;;;4916278;29;20040;-73
2021/10/09 04:30:53;;;;;;;60.80;30.35;;;5.50;99.90;;;;;;4924944;29;20066;-74
2021/10/09 04:33:19;;;;;;;71.10;32.45;;;5.50;99.90;;;;;;4926510;29;20099;-73
2021/10/09 04:35:45;;;;;;;59.47;31.60;;;5.50;99.90;;;;;;4925988;29;20024;-74
2021/10/09 04:38:11;;;;;;;71.28;32.03;;;5.50;99.90;;;;;;4926590;29;20043;-73
2021/10/09 04:40:37;;;;;;;61.67;32.05;;;5.50;99.90;;;;;;4926282;29;20069;-76
2021/10/09 04:43:03;;;;;;;62.60;32.30;;;5.40;99.90;;;;;;4924194;29;20478;-74
2021/10/09 04:45:29;;;;;;;64.65;32.03;;;5.40;99.90;;;;;;4925086;29;20032;-74
2021/10/09 04:47:55;;;;;;;66.18;31.83;;;5.30;99.90;;;;;;4926782;29;20051;-74
2021/10/09 04:50:20;;;;;;;65.43;31.98;;;5.30;99.90;;;;;;4926523;29;20063;-75
2021/10/09 04:52:46;;;;;;;64.55;32.83;;;5.30;99.90;;;;;;4934024;29;20031;-75
2021/10/09 04:55:13;;;;;;;65.35;31.40;;;5.30;99.90;;;;;;4931206;29;20091;-74
2021/10/09 04:57:39;;;;;;;74.20;34.08;;;5.20;99.90;;;;;;4926478;29;20856;-73
2021/10/09 05:00:06;;;;;;;70.40;32.63;;;5.20;99.90;;;;;;4925384;29;20035;-74
2021/10/09 05:02:32;;;;;;;64.40;32.53;;;5.20;99.90;;;;;;4926333;29;20035;-74
2021/10/09 05:04:57;;;;;;;59.58;30.67;;;5.30;99.90;;;;;;4925939;29;20035;-73
2021/10/09 05:07:23;;;;;;;59.63;30.23;;;5.20;99.90;;;;;;4926266;29;20098;-74
2021/10/09 05:09:50;;;;;;;67.40;32.40;;;5.20;99.90;;;;;;4925672;29;20139;-76
2021/10/09 05:12:16;;;;;;;66.22;30.42;;;5.30;99.90;;;;;;4925960;29;20026;-75
2021/10/09 05:14:42;;;;;;;59.65;29.83;;;5.20;99.90;;;;;;4924834;29;20036;-75
2021/10/09 05:17:09;;;;;;;55.53;29.45;;;5.10;99.90;;;;;;4956439;23;20119;-81
2021/10/09 05:19:35;;;;;;;58.88;30.65;;;5.10;99.90;;;;;;4926238;29;20032;-81
2021/10/09 05:22:01;;;;;;;49.80;27.60;;;5.10;99.90;;;;;;4927511;29;20024;-81
2021/10/09 05:24:26;;;;;;;51.95;27.55;;;5.00;99.90;;;;;;4926980;29;20034;-81
2021/10/09 05:26:52;;;;;;;64.10;29.45;;;5.00;99.90;;;;;;4928038;29;20070;-80
2021/10/09 05:29:19;;;;;;;58.67;29.30;;;5.10;99.90;;;;;;4926777;29;20035;-81
2021/10/09 05:31:48;;;;;;;62.22;31.60;;;5.00;99.90;;;;;;4926639;29;20656;-79
2021/10/09 05:34:14;;;;;;;65.32;30.67;;;5.00;99.90;;;;;;4927973;29;20119;-81
2021/10/09 05:36:39;;;;;;;66.05;30.05;;;5.10;99.90;;;;;;4925230;29;20063;-82
2021/10/09 05:39:06;;;;;;;58.25;28.92;;;5.00;99.90;;;;;;4926955;29;20032;-81
2021/10/09 05:41:31;;;;;;;57.22;28.17;;;4.90;99.90;;;;;;4926977;29;20024;-81
2021/10/09 05:43:57;;;;;;;55.97;29.77;;;4.90;99.90;;;;;;4927388;29;20034;-80
2021/10/09 05:46:23;;;;;;;59.80;30.80;;;4.90;99.90;;;;;;4927760;29;20038;-80
2021/10/09 05:48:49;;;;;;;72.32;33.67;;;4.90;99.90;;;;;;4927777;29;20024;-81
2021/10/09 05:51:21;;;;;;;68.03;34.63;;;4.90;99.90;;;;;;4927155;29;20027;-80
2021/10/09 06:47:21;;;;;;;58.80;34.78;;;5.80;99.90;;;;;;4903532;29;20060;-80
2021/10/09 07:00:44;;;;;;;51.85;30.92;;;6.20;99.90;;;;;;4920750;29;20035;-80
2021/10/09 07:03:09;;;;;;;52.95;32.60;;;6.20;99.90;;;;;;4924795;29;20111;-81
2021/10/09 07:05:40;;;;;;;45.00;29.58;;;6.30;99.90;;;;;;4923876;29;20032;-80
2021/10/09 07:08:09;;;;;;;46.03;30.80;;;6.50;99.90;;;;;;4917273;29;20031;-80
2021/10/09 07:10:40;;;;;;;47.17;29.85;;;6.50;99.90;;;;;;4909859;29;20016;-80
2021/10/09 07:13:07;;;;;;;46.58;29.40;;;6.60;99.90;;;;;;4912343;29;20033;-80
2021/10/09 07:15:32;;;;;;;45.53;29.13;;;6.70;99.90;;;;;;4909919;29;20071;-79
2021/10/09 07:17:58;;;;;;;50.90;31.50;;;7.00;99.90;;;;;;4908291;29;20061;-79
2021/10/09 07:20:24;;;;;;;42.78;29.50;;;7.00;99.90;;;;;;4907590;29;20099;-80
2021/10/09 07:22:50;;;;;;;52.20;33.67;;;7.10;99.90;;;;;;4905588;29;20846;-80
2021/10/09 07:25:16;;;;;;;55.67;37.13;;;7.20;99.90;;;;;;4906102;29;20035;-80
2021/10/09 07:27:42;;;;;;;50.15;35.28;;;7.40;99.90;;;;;;4914080;29;20079;-80
2021/10/09 07:30:08;;;;;;;48.53;33.13;;;7.60;99.90;;;;;;4910826;29;20099;-80
2021/10/09 07:32:34;;;;;;;40.58;29.20;;;7.60;99.90;;;;;;4906986;29;20489;-80
2021/10/09 07:34:59;;;;;;;43.05;29.15;;;7.80;99.90;;;;;;4909764;29;20025;-80
2021/10/09 07:37:26;;;;;;;38.40;26.65;;;7.80;99.90;;;;;;4903790;29;20035;-80
2021/10/09 07:39:51;;;;;;;37.92;26.95;;;8.10;99.90;;;;;;4898969;29;20625;-81
2021/10/09 07:42:17;;;;;;;46.15;29.65;;;8.30;99.90;;;;;;4897530;29;20031;-81
2021/10/09 07:44:43;;;;;;;44.85;29.90;;;8.50;99.90;;;;;;4898825;29;20483;-81
2021/10/09 07:47:13;;;;;;;33.05;22.95;;;8.80;99.90;;;;;;4898788;29;20029;-79
2021/10/09 07:49:39;;;;;;;33.22;22.98;;;9.10;99.90;;;;;;4916136;29;20035;-79
2021/10/09 07:52:06;;;;;;;27.33;20.55;;;9.30;99.90;;;;;;4918011;29;20024;-80
2021/10/09 07:54:31;;;;;;;28.98;19.70;;;9.40;99.90;;;;;;4921275;29;20374;-79
2021/10/09 07:56:57;;;;;;;27.67;19.63;;;9.50;99.90;;;;;;4937868;29;20040;-80
2021/10/09 07:59:23;;;;;;;20.85;16.85;;;9.90;99.90;;;;;;4922310;29;20027;-80
2021/10/09 08:01:48;;;;;;;16.98;12.48;;;10.10;99.90;;;;;;4921825;29;20115;-79
2021/10/09 08:04:15;;;;;;;16.98;12.95;;;10.70;99.90;;;;;;4921172;29;20096;-79
2021/10/09 08:06:41;;;;;;;16.90;12.77;;;11.30;99.90;;;;;;4919715;29;20032;-80
2021/10/09 08:09:07;;;;;;;15.27;12.35;;;11.30;99.90;;;;;;4920562;29;20031;-78
2021/10/09 08:11:32;;;;;;;12.35;10.55;;;11.80;99.90;;;;;;4921833;29;20032;-80
2021/10/09 08:13:59;;;;;;;14.77;11.48;;;12.40;99.90;;;;;;4921492;29;20051;-80
2021/10/09 08:16:24;;;;;;;17.45;12.70;;;12.80;99.90;;;;;;4921453;29;20028;-79
2021/10/09 08:18:50;;;;;;;17.17;12.20;;;13.80;99.90;;;;;;4923665;29;20047;-79
2021/10/09 08:21:17;;;;;;;15.10;11.50;;;13.80;99.90;;;;;;4923233;29;20455;-80
2021/10/09 08:23:48;;;;;;;20.63;13.10;;;14.00;99.90;;;;;;4925546;29;20036;-80
2021/10/09 08:39:44;;;;;;;20.48;12.63;;;16.70;99.90;;;;;;4903568;29;20040;-79
2021/10/09 08:42:11;;;;;;;21.63;13.70;;;16.40;99.90;;;;;;4922182;29;20482;-80
2021/10/09 08:44:38;;;;;;;17.67;12.15;;;16.60;99.90;;;;;;4924584;29;20032;-79
2021/10/09 08:47:04;;;;;;;25.13;13.30;;;16.30;99.90;;;;;;4927125;29;20025;-79
2021/10/09 08:49:33;;;;;;;26.02;14.18;;;15.60;99.90;;;;;;4922028;29;20103;-80
2021/10/09 08:52:00;;;;;;;18.35;12.95;;;16.20;99.90;;;;;;4921910;29;20051;-81
2021/10/09 08:54:34;;;;;;;21.70;13.45;;;17.70;99.90;;;;;;4922545;29;20463;-80
2021/10/09 08:57:10;;;;;;;19.15;11.88;;;17.00;99.90;;;;;;4925901;29;20034;-79
2021/10/09 08:59:51;;;;;;;15.25;11.88;;;16.30;99.90;;;;;;4929685;29;20031;-80
2021/10/09 09:02:21;;;;;;;20.00;12.75;;;16.60;99.90;;;;;;4920052;29;20039;-80
2021/10/09 09:32:34;;;;;;;16.38;11.32;;;19.60;99.90;;;;;;4923541;29;20442;-76
2021/10/09 09:40:07;;;;;;;18.38;12.60;;;20.50;99.90;;;;;;4917295;29;20024;-76
2021/10/09 09:42:43;;;;;;;25.48;12.27;;;21.10;99.90;;;;;;4915851;29;20056;-76
2021/10/09 09:45:10;;;;;;;17.38;11.75;;;21.50;99.90;;;;;;4929296;29;20039;-80
2021/10/09 09:47:45;;;;;;;15.43;10.82;;;20.90;98.70;;;;;;4935693;29;20028;-78
2021/10/09 09:50:13;;;;;;;14.85;10.52;;;20.70;99.00;;;;;;4935514;29;20185;-78
2021/10/09 09:52:44;;;;;;;17.58;10.93;;;20.30;99.40;;;;;;4934355;29;20032;-78
2021/10/09 09:55:13;;;;;;;13.25;9.05;;;19.80;99.90;;;;;;4930723;29;20035;-79
2021/10/09 09:57:40;;;;;;;13.20;11.20;;;19.00;99.90;;;;;;4938401;29;20118;-78
2021/10/09 10:00:08;;;;;;;16.88;11.98;;;20.70;99.30;;;;;;4937063;29;20016;-78
2021/10/09 10:02:49;;;;;;;13.68;10.75;;;22.00;97.50;;;;;;4937440;29;20038;-77
2021/10/09 10:05:15;;;;;;;14.07;9.82;;;22.30;97.20;;;;;;4935607;29;20031;-78
2021/10/09 10:07:41;;;;;;;15.60;10.95;;;21.40;98.10;;;;;;4934467;29;20510;-78
2021/10/09 10:10:08;;;;;;;13.15;10.60;;;21.30;96.50;;;;;;4931982;29;20028;-78
2021/10/09 10:12:38;;;;;;;16.65;9.82;;;22.10;95.90;;;;;;4937059;29;20055;-78
2021/10/09 10:15:11;;;;;;;12.82;8.82;;;22.10;96.50;;;;;;4935422;29;20076;-78
2021/10/09 10:17:43;;;;;;;22.60;11.20;;;22.10;97.20;;;;;;4930898;29;20032;-77
2021/10/09 10:20:16;;;;;;;14.10;10.27;;;20.60;96.70;;;;;;4934050;29;20032;-78
2021/10/09 10:22:42;;;;;;;16.63;10.27;;;21.20;97.80;;;;;;4921907;29;20483;-78
2021/10/09 10:25:28;;;;;;;18.67;10.43;;;21.60;97.20;;;;;;4921130;29;20031;-78
2021/10/09 10:28:17;;;;;;;11.35;9.88;;;20.80;97.10;;;;;;4924199;29;20024;-78
2021/10/09 10:31:04;;;;;;;18.50;10.50;;;21.40;95.90;;;;;;4919754;29;20036;-77
2021/10/09 10:33:37;;;;;;;13.70;11.00;;;19.40;99.10;;;;;;4921714;29;20104;-78
2021/10/09 10:36:03;;;;;;;15.13;11.38;;;18.90;99.90;;;;;;4935241;29;20051;-78
2021/10/09 10:38:37;;;;;;;15.15;10.07;;;19.20;99.90;;;;;;4923163;29;20101;-78
2021/10/09 10:41:04;;;;;;;16.20;9.85;;;19.50;99.40;;;;;;4922545;29;20028;-79
2021/10/09 10:46:32;;;;;;;12.60;9.60;;;21.00;97.10;;;;;;4923059;29;20131;-80
2021/10/09 10:52:34;;;;;;;14.73;9.95;;;21.30;96.50;;;;;;4923752;29;20024;-80
2021/10/09 10:54:31;;;;;;;14.88;9.43;;;22.00;96.10;;;;;;4916821;29;20083;-80
2021/10/09 10:56:59;;;;;;;23.63;9.50;;;21.70;96.40;;;;;;4938506;29;20016;-79
2021/10/09 10:59:31;;;;;;;10.55;9.05;;;21.70;96.30;;;;;;4938721;29;20023;-82
2021/10/09 11:02:10;;;;;;;;;;;21.60;94.60;;;;;;4936702;29;20044;-80
2021/10/09 11:04:39;;;;;;;13.13;8.60;;;21.40;95.90;;;;;;4929250;29;20425;-80
2021/10/09 11:07:05;;;;;;;12.13;8.85;;;22.60;95.00;;;;;;4931575;29;20028;-80
2021/10/09 11:09:30;;;;;;;11.90;9.57;;;22.80;93.40;;;;;;4922316;29;20060;-83
2021/10/09 11:11:56;;;;;;;10.55;8.30;;;22.80;93.90;;;;;;4904587;29;20083;-82
2021/10/09 11:14:25;;;;;;;14.93;8.63;;;23.10;92.30;;;;;;4900081;29;20031;-80
2021/10/09 11:17:04;;;;;;;16.95;8.82;;;21.60;94.10;;;;;;4897938;29;20043;-82
2021/10/09 11:19:50;;;;;;;15.27;9.10;;;21.10;95.10;;;;;;4900571;29;20036;-80
2021/10/09 11:22:19;;;;;;;14.38;9.27;;;22.20;93.70;;;;;;4899803;29;20028;-80
2021/10/09 11:24:47;;;;;;;14.20;8.68;;;21.80;93.50;;;;;;4899568;29;20099;-81
2021/10/09 11:27:15;;;;;;;11.43;7.93;;;22.50;92.00;;;;;;4899502;29;20040;-80
2021/10/09 11:29:42;;;;;;;10.73;8.07;;;22.00;93.20;;;;;;4899875;29;20053;-79
2021/10/09 11:32:11;;;;;;;13.93;8.13;;;22.40;92.70;;;;;;4899549;29;20440;-80
2021/10/09 11:34:50;;;;;;;14.90;8.40;;;23.10;92.10;;;;;;4898626;29;20028;-79
2021/10/09 11:37:17;;;;;;;10.73;7.95;;;24.40;88.20;;;;;;4899293;29;20083;-82
2021/10/09 11:39:52;;;;;;;11.18;7.40;;;24.60;87.10;;;;;;4899456;29;20117;-78
2021/10/09 11:42:25;;;;;;;9.60;8.45;;;24.30;85.10;;;;;;4915502;29;20060;-80
2021/10/09 11:53:58;;;;;;;13.77;8.18;;;24.50;86.30;;;;;;4918358;29;20034;-79
2021/10/09 11:56:24;;;;;;;9.73;7.82;;;25.90;81.90;;;;;;4917050;29;20047;-80
2021/10/09 11:58:56;;;;;;;8.50;7.55;;;25.60;78.70;;;;;;4917140;29;20024;-79
2021/10/09 12:01:33;;;;;;;17.02;8.40;;;24.70;80.60;;;;;;4918108;29;20016;-80
2021/10/09 12:04:21;;;;;;;9.70;7.57;;;25.30;83.80;;;;;;4909638;29;20037;-79
2021/10/09 12:07:01;;;;;;;8.70;7.13;;;26.10;78.80;;;;;;4903252;29;20040;-79
2021/10/09 12:09:46;;;;;;;11.77;7.65;;;25.60;80.60;;;;;;4901321;29;20063;-80
2021/10/09 12:12:13;;;;;;;9.50;7.65;;;24.90;78.90;;;;;;4915168;29;20103;-79
2021/10/09 12:14:39;;;;;;;14.15;7.38;;;23.90;80.90;;;;;;4909934;29;20283;-79
2021/10/09 12:17:05;;;;;;;8.38;7.05;;;23.80;84.00;;;;;;4907236;29;20605;-79
2021/10/09 12:19:31;;;;;;;10.45;7.25;;;24.70;80.50;;;;;;4902858;29;20055;-79
2021/10/09 12:21:57;;;;;;;8.15;7.15;;;24.00;82.10;;;;;;4899317;29;20053;-79
2021/10/09 12:24:25;;;;;;;9.88;6.88;;;23.20;83.10;;;;;;4897444;29;20036;-79
2021/10/09 12:27:05;;;;;;;10.38;7.10;;;23.40;82.90;;;;;;4899910;29;20105;-78
2021/10/09 12:29:34;;;;;;;9.02;6.43;;;23.60;85.50;;;;;;4898306;29;20024;-79
2021/10/09 12:32:15;;;;;;;10.82;6.85;;;24.80;78.20;;;;;;4898805;29;20432;-79
2021/10/09 12:34:41;;;;;;;9.48;6.85;;;25.60;74.30;;;;;;4897622;29;20040;-80
2021/10/09 12:37:11;;;;;;;8.05;6.18;;;25.50;75.70;;;;;;4896727;29;20412;-79
2021/10/09 12:39:37;;;;;;;7.07;6.22;;;25.90;76.30;;;;;;4899223;29;20032;-79
2021/10/09 12:42:03;;;;;;;9.75;6.43;;;25.80;74.70;;;;;;4917429;29;20024;-80
2021/10/09 12:44:29;;;;;;;7.45;6.10;;;24.30;78.30;;;;;;4921631;29;20043;-79
2021/10/09 12:46:55;;;;;;;10.15;6.75;;;24.70;78.00;;;;;;4920563;29;20036;-79
2021/10/09 12:49:20;;;;;;;11.35;7.05;;;24.90;75.10;;;;;;4920389;29;20038;-80
2021/10/09 12:51:49;;;;;;;9.55;6.00;;;24.90;74.50;;;;;;4921663;29;20028;-81
2021/10/09 12:54:17;;;;;;;12.77;5.68;;;25.10;74.70;;;;;;4923447;29;20063;-78
2021/10/09 12:56:44;;;;;;;8.80;5.78;;;25.60;73.40;;;;;;4919162;29;20111;-80
2021/10/09 12:59:10;;;;;;;6.13;5.53;;;25.90;73.90;;;;;;4903344;29;20036;-83
2021/10/09 13:01:36;;;;;;;9.30;5.80;;;25.30;72.60;;;;;;4903190;29;20096;-82
2021/10/09 13:04:01;;;;;;;8.15;6.25;;;24.00;76.80;;;;;;4901817;29;20029;-82
2021/10/09 13:06:27;;;;;;;8.18;5.75;;;23.40;77.90;;;;;;4903245;29;20032;-82
2021/10/09 13:08:53;;;;;;;8.27;6.10;;;23.30;77.20;;;;;;4902667;29;20051;-82
2021/10/09 13:11:25;;;;;;;7.68;6.25;;;23.50;77.50;;;;;;4942261;29;20561;-83
2021/10/09 13:13:50;;;;;;;12.50;6.20;;;23.10;76.80;;;;;;4923346;29;20052;-81
2021/10/09 13:16:16;;;;;;;11.98;6.00;;;22.70;80.40;;;;;;4921625;29;20036;-82
2021/10/09 13:18:42;;;;;;;9.45;6.18;;;22.10;81.80;;;;;;4923271;29;20036;-81
2021/10/09 13:21:08;;;;;;;9.70;6.50;;;22.80;81.70;;;;;;4921826;29;20102;-81
2021/10/09 13:23:33;;;;;;;9.55;6.80;;;23.20;80.50;;;;;;4920453;29;20036;-82
2021/10/09 13:25:59;;;;;;;10.07;6.95;;;23.20;79.60;;;;;;4920274;29;20044;-82
2021/10/09 13:28:25;;;;;;;11.02;6.32;;;23.30;78.20;;;;;;4919854;29;20028;-81
2021/10/09 13:30:51;;;;;;;10.50;6.82;;;22.50;78.10;;;;;;4925910;29;20600;-81
2021/10/09 13:33:17;;;;;;;8.00;6.18;;;22.60;81.10;;;;;;4918792;29;20020;-81
2021/10/09 13:35:43;;;;;;;13.20;6.60;;;22.30;78.90;;;;;;4904532;29;20454;-80
2021/10/09 13:38:11;;;;;;;6.13;5.45;;;21.30;82.30;;;;;;4905842;29;20040;-81
2021/10/09 13:40:37;;;;;;;8.25;5.95;;;21.50;83.00;;;;;;4908104;29;20387;-80
2021/10/09 13:43:03;;;;;;;7.55;6.18;;;21.70;80.90;;;;;;4923916;29;20047;-81
2021/10/09 13:45:29;;;;;;;10.82;5.68;;;21.50;82.90;;;;;;4921859;29;20122;-82
2021/10/09 13:47:55;;;;;;;10.45;6.15;;;21.90;81.40;;;;;;4923725;29;20039;-81
2021/10/09 13:50:21;;;;;;;18.20;6.55;;;21.80;80.60;;;;;;4920694;29;20032;-81
2021/10/09 13:52:47;;;;;;;8.63;5.40;;;22.20;81.00;;;;;;4923306;29;20067;-82
2021/10/09 13:55:13;;;;;;;13.82;5.80;;;21.40;82.50;;;;;;4918550;29;20024;-81
2021/10/09 13:57:38;;;;;;;7.63;6.00;;;21.40;80.90;;;;;;4919699;29;20032;-79
2021/10/09 14:00:05;;;;;;;9.10;5.88;;;21.50;82.70;;;;;;4920940;29;20036;-82
2021/10/09 14:02:31;;;;;;;11.73;6.15;;;21.40;80.70;;;;;;4921450;29;20523;-81
2021/10/09 14:04:57;;;;;;;10.00;6.00;;;21.20;82.70;;;;;;4920967;29;20039;-79
2021/10/09 14:07:22;;;;;;;11.13;5.25;;;21.50;82.10;;;;;;4921881;29;20115;-82
2021/10/09 14:09:48;;;;;;;14.43;5.90;;;20.80;83.10;;;;;;4922262;29;20489;-81
2021/10/09 14:12:14;;;;;;;10.05;6.65;;;20.80;84.80;;;;;;4919995;29;20036;-81
2021/10/09 14:14:40;;;;;;;8.27;5.50;;;20.70;82.90;;;;;;4921093;29;20024;-80
2021/10/09 14:17:07;;;;;;;8.40;5.53;;;20.60;83.80;;;;;;4918829;29;20028;-81
2021/10/09 14:19:32;;;;;;;8.90;5.75;;;20.80;84.70;;;;;;4918473;29;20024;-81
2021/10/09 14:21:58;;;;;;;6.45;5.40;;;20.70;82.30;;;;;;4921112;29;20028;-82
2021/10/09 14:24:24;;;;;;;10.55;6.15;;;20.50;84.50;;;;;;4918291;29;20028;-82
2021/10/09 14:26:49;;;;;;;9.02;5.57;;;20.70;83.80;;;;;;4920165;29;20032;-80
2021/10/09 14:29:15;;;;;;;9.25;5.88;;;20.80;83.50;;;;;;4920916;29;20032;-82
2021/10/09 14:31:41;;;;;;;7.93;5.38;;;20.50;84.90;;;;;;4920681;29;20071;-80
2021/10/09 14:34:06;;;;;;;7.88;6.07;;;20.30;86.00;;;;;;4919757;29;20149;-81
2021/10/09 14:36:32;;;;;;;10.55;6.65;;;20.70;83.30;;;;;;4926268;29;20020;-77
2021/10/09 14:38:58;;;;;;;10.45;6.00;;;20.20;83.10;;;;;;4930426;29;20447;-80
2021/10/09 14:41:24;;;;;;;6.15;5.28;;;20.50;83.60;;;;;;4918535;29;20446;-81
2021/10/09 14:43:50;;;;;;;8.48;5.80;;;20.50;84.20;;;;;;4919425;29;20038;-80
2021/10/09 14:49:14;;;;;;;9.77;5.45;;;20.10;86.40;;;;;;4932448;29;20032;-81
2021/10/09 14:51:53;;;;;;;9.25;6.03;;;20.10;87.80;;;;;;4918433;29;20021;-80
2021/10/09 15:16:06;;;;;;;7.88;5.90;;;20.30;85.40;;;;;;4919843;29;20039;-76
2021/10/09 15:18:44;;;;;;;8.65;5.20;;;20.10;86.40;;;;;;4925028;29;20238;-77
2021/10/09 15:21:09;;;;;;;6.65;5.35;;;20.00;85.30;;;;;;4927569;29;20028;-82